ADDS METAR Data INFO
IDs: Format: Raw Decoded Include TAF

Data at: 0037 UTC 23 Oct 2017

METAR for:KPBI (Palm Beach Intl, FL, US)
Text:KPBI 222353Z 12010KT 10SM SCT024 BKN200 28/23 A3009 RMK AO2 SLP188 T02780228 10306 20278 53005
Temperature: 27.8°C ( 82°F)
Dewpoint: 22.8°C ( 73°F) [RH = 74%]
Pressure (altimeter):30.09 inches Hg (1019.0 mb) [Sea level pressure: 1018.8 mb]
Winds:from the ESE (120 degrees) at 12 MPH (10 knots; 5.1 m/s)
Visibility:10 or more sm (16+ km)
Ceiling:20000 feet AGL
Clouds: scattered clouds at 2400 feet AGL, broken clouds at 20000 feet AGL